< < Back
Terminal Aerodrome Forecast


Current Version              Previous Versions:   1  2  3  4  5  6  7  8  9  

Terminal Aerodrome Forecast

131
FTUS42 KTAE 301737
TAFTLH
TAF
KTLH 301737Z 3018/3118 27010G18KT P6SM SCT050 BKN100
      TEMPO 3020/3023 VRB15G25KT 3SM TSRA BKN050CB
     FM310200 22005KT P6SM BKN050
     FM310600 25003KT 3SM BR SCT025
     FM310900 00000KT 2SM BR OVC025
     FM311500 27005KT P6SM BKN050=



Latest METAR

953
SAUS80 KWBC 310600 RRA
MTRTLH
METAR KTLH 310553Z AUTO 00000KT 9SM FEW011 14/13 A3014 RMK AO2 SLP204
T01390128 10194 20139 58006


USA.gov is the U.S. government's official web portal to all federal, state and local government web resources and services.